This is the latest recevied weather packets stored in our database for station/object K1WJY. If no packets are shown the sender has not sent any weather packets the latest 10 day(s).
| Time | Temp. | Humidity | Pressure | Rain* | Wind** | Luminosity | Snow |
|---|---|---|---|---|---|---|---|
| 1777578136 | 8.33° C | 99% | 1009.7 hPa | 3.05 mm | - | 56 W/m² | - |
| 1777577832 | 8.33° C | 99% | 1009.7 hPa | 1.78 mm | - | 56 W/m² | - |
| 1777577528 | 8.33° C | 99% | 1009.7 hPa | 1.27 mm | - | 45 W/m² | - |
| 1777577225 | 8.33° C | 99% | 1009.7 hPa | 1.27 mm | - | 58 W/m² | - |
| 1777576921 | 8.33° C | 99% | 1009.9 hPa | 0 mm | - | 76 W/m² | - |
| 1777576616 | 8.33° C | 99% | 1009.9 hPa | 0 mm | - | 93 W/m² | - |
| 1777576312 | 8.33° C | 99% | 1010.1 hPa | 1.78 mm | - | 91 W/m² | - |
| 1777576008 | 8.33° C | 99% | 1010.2 hPa | 1.78 mm | - | 105 W/m² | - |
| 1777575705 | 7.78° C | 99% | 1010.2 hPa | 3.05 mm | - | 98 W/m² | - |
| 1777575400 | 7.78° C | 99% | 1010.4 hPa | 7.87 mm | - | 107 W/m² | - |
| 1777575097 | 7.78° C | 99% | 1010.7 hPa | 7.87 mm | - | 92 W/m² | - |
| 1777574792 | 7.78° C | 99% | 1010.7 hPa | 4.32 mm | - | 102 W/m² | - |
| 1777574491 | 7.78° C | 99% | 1010.6 hPa | 1.27 mm | - | 121 W/m² | - |
| 1777574187 | 7.78° C | 99% | 1010.6 hPa | 0 mm | - | 124 W/m² | - |
| 1777573882 | 7.78° C | 99% | 1011 hPa | 1.78 mm | - | 101 W/m² | - |
| 1777573582 | 7.78° C | 99% | 1010.9 hPa | 1.78 mm | - | 139 W/m² | - |
| 1777573279 | 7.78° C | 99% | 1011 hPa | 0 mm | - | 179 W/m² | - |
| 1777572975 | 7.78° C | 99% | 1011.2 hPa | 0 mm | - | 160 W/m² | - |
| 1777572671 | 7.78° C | 99% | 1011.3 hPa | 1.27 mm | - | 121 W/m² | - |
| 1777572371 | 7.78° C | 99% | 1011.2 hPa | 1.27 mm | - | 126 W/m² | - |
| 1777572068 | 7.78° C | 99% | 1011.1 hPa | 0 mm | - | 120 W/m² | - |
| 1777571768 | 7.78° C | 99% | 1011.3 hPa | 0 mm | - | 159 W/m² | - |
| 1777571465 | 7.78° C | 99% | 1011.3 hPa | 0 mm | - | 158 W/m² | - |
| 1777571161 | 7.22° C | 99% | 1011.4 hPa | 0 mm | - | 146 W/m² | - |
| 1777570857 | 7.22° C | 99% | 1011.7 hPa | 1.78 mm | - | 131 W/m² | - |
* Rain latest hour (hover to see other rain measurements)
** Current wind speed in m/s (hover to see current wind gust speed)